sensor_id;sensor_type;location;lat;lon;timestamp;pressure;altitude;pressure_sealevel;temperature;humidity
13241;BME280;6687;47.790;7.322;2023-04-29T05:24:32;98798.34;;;14.53;99.40
13241;BME280;6687;47.790;7.322;2023-04-29T05:26:58;98810.41;;;14.62;98.10
13241;BME280;6687;47.790;7.322;2023-04-29T05:29:25;98808.59;;;14.66;97.10
13241;BME280;6687;47.790;7.322;2023-04-29T05:31:52;98815.47;;;14.70;95.93
13241;BME280;6687;47.790;7.322;2023-04-29T05:34:19;98816.25;;;14.77;95.75
13241;BME280;6687;47.790;7.322;2023-04-29T05:36:45;98821.38;;;14.81;96.35
13241;BME280;6687;47.790;7.322;2023-04-29T05:39:12;98817.59;;;14.45;100.00
13241;BME280;6687;47.790;7.322;2023-04-29T05:41:40;98830.34;;;14.65;100.00
13241;BME280;6687;47.790;7.322;2023-04-29T05:44:07;98828.66;;;14.62;100.00
13241;BME280;6687;47.790;7.322;2023-04-29T05:46:34;98829.19;;;14.81;100.00
13241;BME280;6687;47.790;7.322;2023-04-29T05:49:00;98833.81;;;14.64;100.00
13241;BME280;6687;47.790;7.322;2023-04-29T05:51:27;98833.81;;;14.64;100.00
13241;BME280;6687;47.790;7.322;2023-04-29T05:53:54;98830.00;;;14.85;100.00
13241;BME280;6687;47.790;7.322;2023-04-29T05:56:21;98836.63;;;15.03;100.00
13241;BME280;6687;47.790;7.322;2023-04-29T05:58:49;98834.28;;;14.87;100.00
13241;BME280;6687;47.790;7.322;2023-04-29T06:01:16;98843.56;;;15.04;100.00
13241;BME280;6687;47.790;7.322;2023-04-29T06:03:42;98846.16;;;15.04;100.00
13241;BME280;6687;47.790;7.322;2023-04-29T06:06:09;98855.38;;;15.25;100.00
13241;BME280;6687;47.790;7.322;2023-04-29T06:08:37;98856.56;;;15.07;100.00
13241;BME280;6687;47.790;7.322;2023-04-29T06:11:04;98857.06;;;15.26;100.00
13241;BME280;6687;47.790;7.322;2023-04-29T06:13:30;98860.00;;;15.09;100.00
13241;BME280;6687;47.790;7.322;2023-04-29T06:15:59;98866.78;;;15.19;100.00
13241;BME280;6687;47.790;7.322;2023-04-29T06:18:25;98873.50;;;15.32;100.00
13241;BME280;6687;47.790;7.322;2023-04-29T06:20:52;98868.03;;;14.98;100.00
13241;BME280;6687;47.790;7.322;2023-04-29T06:23:19;98860.56;;;15.26;100.00
13241;BME280;6687;47.790;7.322;2023-04-29T06:25:46;98869.69;;;15.49;100.00
13241;BME280;6687;47.790;7.322;2023-04-29T06:28:12;98868.56;;;15.17;100.00
13241;BME280;6687;47.790;7.322;2023-04-29T06:30:40;98873.25;;;15.45;100.00
13241;BME280;6687;47.790;7.322;2023-04-29T06:33:08;98877.19;;;15.22;100.00
13241;BME280;6687;47.790;7.322;2023-04-29T06:35:38;98880.94;;;15.54;100.00
13241;BME280;6687;47.790;7.322;2023-04-29T06:38:04;98878.03;;;15.68;99.34
13241;BME280;6687;47.790;7.322;2023-04-29T06:40:32;98884.66;;;15.41;100.00
13241;BME280;6687;47.790;7.322;2023-04-29T06:42:59;98888.94;;;15.45;100.00
13241;BME280;6687;47.790;7.322;2023-04-29T06:45:26;98900.75;;;15.64;100.00
13241;BME280;6687;47.790;7.322;2023-04-29T06:47:53;98896.09;;;15.34;100.00
13241;BME280;6687;47.790;7.322;2023-04-29T06:50:21;98901.88;;;15.96;100.00
13241;BME280;6687;47.790;7.322;2023-04-29T06:52:48;98903.56;;;15.97;100.00
13241;BME280;6687;47.790;7.322;2023-04-29T06:55:15;98910.16;;;16.15;100.00
13241;BME280;6687;47.790;7.322;2023-04-29T06:57:42;98913.16;;;16.37;99.24
13241;BME280;6687;47.790;7.322;2023-04-29T07:00:09;98916.97;;;16.24;99.01
13241;BME280;6687;47.790;7.322;2023-04-29T07:02:36;98917.28;;;16.08;100.00
13241;BME280;6687;47.790;7.322;2023-04-29T07:05:03;98916.34;;;16.52;98.70
13241;BME280;6687;47.790;7.322;2023-04-29T07:07:32;98913.66;;;16.55;97.50
13241;BME280;6687;47.790;7.322;2023-04-29T07:09:58;98916.34;;;16.52;97.01
13241;BME280;6687;47.790;7.322;2023-04-29T07:12:25;98923.22;;;16.56;95.83
13241;BME280;6687;47.790;7.322;2023-04-29T07:14:52;98922.94;;;16.68;95.55
13241;BME280;6687;47.790;7.322;2023-04-29T07:17:18;98931.53;;;17.10;94.46
13241;BME280;6687;47.790;7.322;2023-04-29T07:19:45;98937.63;;;17.11;93.80
13241;BME280;6687;47.790;7.322;2023-04-29T07:22:12;98939.28;;;17.15;93.00
13241;BME280;6687;47.790;7.322;2023-04-29T07:24:40;98942.50;;;16.89;92.55
13241;BME280;6687;47.790;7.322;2023-04-29T07:27:07;98944.72;;;17.06;91.94
13241;BME280;6687;47.790;7.322;2023-04-29T07:29:34;98951.06;;;17.32;89.48
13241;BME280;6687;47.790;7.322;2023-04-29T07:32:00;98948.72;;;17.55;89.01
13241;BME280;6687;47.790;7.322;2023-04-29T07:34:27;98949.66;;;17.18;85.98
13241;BME280;6687;47.790;7.322;2023-04-29T07:36:54;98950.97;;;17.35;84.56
13241;BME280;6687;47.790;7.322;2023-04-29T07:39:21;98940.81;;;17.89;84.12
13241;BME280;6687;47.790;7.322;2023-04-29T07:41:49;98948.16;;;17.42;81.08
13241;BME280;6687;47.790;7.322;2023-04-29T07:44:16;98940.97;;;18.15;83.00
13241;BME280;6687;47.790;7.322;2023-04-29T07:46:43;98948.06;;;18.41;80.13
13241;BME280;6687;47.790;7.322;2023-04-29T07:49:09;98947.03;;;18.46;78.86
13241;BME280;6687;47.790;7.322;2023-04-29T07:51:40;98962.16;;;18.38;77.43
13241;BME280;6687;47.790;7.322;2023-04-29T07:54:06;98953.38;;;18.96;77.93
13241;BME280;6687;47.790;7.322;2023-04-29T07:56:33;98960.16;;;18.46;73.30
13241;BME280;6687;47.790;7.322;2023-04-29T07:59:01;98956.78;;;18.41;71.21
13241;BME280;6687;47.790;7.322;2023-04-29T08:01:28;98961.06;;;19.28;73.74
13241;BME280;6687;47.790;7.322;2023-04-29T08:03:54;98958.31;;;19.05;73.74
13241;BME280;6687;47.790;7.322;2023-04-29T08:06:21;98957.25;;;19.62;71.79
13241;BME280;6687;47.790;7.322;2023-04-29T08:08:48;98959.28;;;18.74;68.27
13241;BME280;6687;47.790;7.322;2023-04-29T08:11:15;98959.66;;;19.68;72.99
13241;BME280;6687;47.790;7.322;2023-04-29T08:13:42;98961.34;;;19.96;67.95
13241;BME280;6687;47.790;7.322;2023-04-29T08:16:11;98958.22;;;20.10;65.89
13241;BME280;6687;47.790;7.322;2023-04-29T08:18:38;98959.16;;;20.31;66.50
13241;BME280;6687;47.790;7.322;2023-04-29T08:21:05;98956.75;;;19.78;62.34
13241;BME280;6687;47.790;7.322;2023-04-29T08:23:31;98954.84;;;20.06;62.15
13241;BME280;6687;47.790;7.322;2023-04-29T08:25:58;98954.84;;;19.56;61.58
13241;BME280;6687;47.790;7.322;2023-04-29T08:28:25;98950.78;;;19.73;60.52
13241;BME280;6687;47.790;7.322;2023-04-29T08:30:52;98951.50;;;20.25;60.56
13241;BME280;6687;47.790;7.322;2023-04-29T08:33:21;98957.97;;;20.63;68.82
13241;BME280;6687;47.790;7.322;2023-04-29T08:35:48;98958.03;;;20.15;60.63
13241;BME280;6687;47.790;7.322;2023-04-29T08:38:15;98959.75;;;21.07;66.89
13241;BME280;6687;47.790;7.322;2023-04-29T08:40:43;98955.44;;;20.82;65.71
13241;BME280;6687;47.790;7.322;2023-04-29T08:43:12;98956.75;;;20.01;58.09
13241;BME280;6687;47.790;7.322;2023-04-29T08:45:40;98959.63;;;20.19;58.13
13241;BME280;6687;47.790;7.322;2023-04-29T08:48:08;98950.06;;;20.85;60.44
13241;BME280;6687;47.790;7.322;2023-04-29T08:50:37;98953.25;;;20.94;59.50
13241;BME280;6687;47.790;7.322;2023-04-29T08:53:05;98955.31;;;20.18;58.02
13241;BME280;6687;47.790;7.322;2023-04-29T08:55:34;98958.88;;;21.06;65.59
13241;BME280;6687;47.790;7.322;2023-04-29T08:58:02;98959.00;;;20.36;58.41
13241;BME280;6687;47.790;7.322;2023-04-29T09:00:30;98953.66;;;20.83;57.87
13241;BME280;6687;47.790;7.322;2023-04-29T09:02:57;98958.34;;;20.76;55.82
13241;BME280;6687;47.790;7.322;2023-04-29T09:05:26;98953.06;;;20.53;55.89
13241;BME280;6687;47.790;7.322;2023-04-29T09:07:55;98951.84;;;21.28;59.24
13241;BME280;6687;47.790;7.322;2023-04-29T09:10:24;98953.25;;;20.94;54.72
13241;BME280;6687;47.790;7.322;2023-04-29T09:12:55;98952.81;;;21.47;62.52
13241;BME280;6687;47.790;7.322;2023-04-29T09:15:21;98957.91;;;21.30;53.18
13241;BME280;6687;47.790;7.322;2023-04-29T09:17:48;98956.19;;;21.90;60.96
13241;BME280;6687;47.790;7.322;2023-04-29T09:20:33;98949.44;;;21.84;60.10
13241;BME280;6687;47.790;7.322;2023-04-29T09:23:02;98949.13;;;22.30;59.50
13241;BME280;6687;47.790;7.322;2023-04-29T09:25:29;98950.88;;;22.31;61.43
13241;BME280;6687;47.790;7.322;2023-04-29T09:27:56;98944.22;;;21.83;53.57
13241;BME280;6687;47.790;7.322;2023-04-29T09:30:23;98943.16;;;22.46;52.42
13241;BME280;6687;47.790;7.322;2023-04-29T09:33:04;98935.41;;;22.60;55.55
13241;BME280;6687;47.790;7.322;2023-04-29T09:35:31;98936.75;;;22.32;56.45
13241;BME280;6687;47.790;7.322;2023-04-29T09:38:11;98935.72;;;22.73;53.40
13241;BME280;6687;47.790;7.322;2023-04-29T09:40:38;98939.13;;;22.56;57.13
13241;BME280;6687;47.790;7.322;2023-04-29T09:43:11;98938.53;;;22.51;58.00
13241;BME280;6687;47.790;7.322;2023-04-29T09:45:41;98935.22;;;23.01;57.38
13241;BME280;6687;47.790;7.322;2023-04-29T09:48:09;98937.66;;;23.40;57.44
13241;BME280;6687;47.790;7.322;2023-04-29T09:50:36;98935.03;;;23.23;55.75
13241;BME280;6687;47.790;7.322;2023-04-29T09:53:03;98935.47;;;23.31;55.64
13241;BME280;6687;47.790;7.322;2023-04-29T09:55:33;98926.69;;;23.66;55.73
13241;BME280;6687;47.790;7.322;2023-04-29T09:58:00;98932.28;;;23.07;51.44
13241;BME280;6687;47.790;7.322;2023-04-29T10:00:30;98933.84;;;23.63;56.78
13241;BME280;6687;47.790;7.322;2023-04-29T10:02:58;98923.09;;;23.67;54.67
13241;BME280;6687;47.790;7.322;2023-04-29T10:05:27;98923.94;;;23.67;52.91
13241;BME280;6687;47.790;7.322;2023-04-29T10:07:55;98929.03;;;23.37;48.39
13241;BME280;6687;47.790;7.322;2023-04-29T10:10:23;98923.91;;;24.18;53.15
13241;BME280;6687;47.790;7.322;2023-04-29T10:12:53;98924.34;;;24.42;49.80
13241;BME280;6687;47.790;7.322;2023-04-29T10:15:26;98925.81;;;24.32;50.28
13241;BME280;6687;47.790;7.322;2023-04-29T10:17:56;98923.28;;;24.62;47.77
13241;BME280;6687;47.790;7.322;2023-04-29T10:20:24;98920.84;;;24.41;54.70
13241;BME280;6687;47.790;7.322;2023-04-29T10:22:52;98926.31;;;24.86;53.09
13241;BME280;6687;47.790;7.322;2023-04-29T10:25:23;98923.41;;;25.21;51.48
13241;BME280;6687;47.790;7.322;2023-04-29T10:27:50;98923.75;;;24.85;48.35
13241;BME280;6687;47.790;7.322;2023-04-29T10:30:20;98920.69;;;24.76;47.23
13241;BME280;6687;47.790;7.322;2023-04-29T10:32:48;98922.41;;;25.24;48.42
13241;BME280;6687;47.790;7.322;2023-04-29T10:35:16;98928.00;;;25.03;45.52
13241;BME280;6687;47.790;7.322;2023-04-29T10:37:45;98924.94;;;24.95;44.96
13241;BME280;6687;47.790;7.322;2023-04-29T10:40:16;98926.31;;;25.16;43.65
13241;BME280;6687;47.790;7.322;2023-04-29T10:42:46;98920.38;;;25.13;42.88
13241;BME280;6687;47.790;7.322;2023-04-29T10:45:19;98921.97;;;25.15;44.83
13241;BME280;6687;47.790;7.322;2023-04-29T10:48:08;98919.03;;;25.36;50.86
13241;BME280;6687;47.790;7.322;2023-04-29T10:50:43;98910.75;;;25.99;45.35
13241;BME280;6687;47.790;7.322;2023-04-29T10:53:26;98915.84;;;25.88;46.06
13241;BME280;6687;47.790;7.322;2023-04-29T10:55:55;98911.88;;;26.10;51.70
13241;BME280;6687;47.790;7.322;2023-04-29T10:58:38;98908.31;;;26.38;50.81
13241;BME280;6687;47.790;7.322;2023-04-29T11:01:10;98914.44;;;25.83;45.18
13241;BME280;6687;47.790;7.322;2023-04-29T11:03:50;98910.75;;;25.99;51.58
13241;BME280;6687;47.790;7.322;2023-04-29T11:06:21;98906.56;;;26.10;49.40
13241;BME280;6687;47.790;7.322;2023-04-29T11:08:59;98912.84;;;26.23;45.76
13241;BME280;6687;47.790;7.322;2023-04-29T11:11:39;98899.22;;;26.42;42.45
13241;BME280;6687;47.790;7.322;2023-04-29T11:14:07;98901.91;;;26.69;47.92
13241;BME280;6687;47.790;7.322;2023-04-29T11:16:36;98901.53;;;25.76;41.76
13241;BME280;6687;47.790;7.322;2023-04-29T11:19:04;98897.78;;;26.51;41.79
13241;BME280;6687;47.790;7.322;2023-04-29T11:21:33;98901.91;;;26.69;44.64
13241;BME280;6687;47.790;7.322;2023-04-29T11:24:00;98895.09;;;26.65;47.61
13241;BME280;6687;47.790;7.322;2023-04-29T11:26:27;98893.75;;;27.12;49.15
13241;BME280;6687;47.790;7.322;2023-04-29T11:28:55;98893.88;;;26.84;44.52
13241;BME280;6687;47.790;7.322;2023-04-29T11:31:25;98895.44;;;26.32;43.00
13241;BME280;6687;47.790;7.322;2023-04-29T11:33:55;98894.91;;;26.54;49.62
13241;BME280;6687;47.790;7.322;2023-04-29T11:36:21;98890.06;;;26.88;46.33
13241;BME280;6687;47.790;7.322;2023-04-29T11:38:48;98892.53;;;26.08;40.77
13241;BME280;6687;47.790;7.322;2023-04-29T11:41:15;98896.44;;;26.85;41.75
13241;BME280;6687;47.790;7.322;2023-04-29T11:43:45;98887.81;;;26.54;41.42
13241;BME280;6687;47.790;7.322;2023-04-29T11:46:12;98892.38;;;26.79;43.30
13241;BME280;6687;47.790;7.322;2023-04-29T11:48:45;98898.28;;;25.12;40.79
13241;BME280;6687;47.790;7.322;2023-04-29T11:51:14;98887.19;;;26.22;42.66
13241;BME280;6687;47.790;7.322;2023-04-29T11:53:41;98891.19;;;26.98;40.26
13241;BME280;6687;47.790;7.322;2023-04-29T11:56:08;98889.25;;;26.60;42.33
13241;BME280;6687;47.790;7.322;2023-04-29T11:58:36;98886.03;;;27.35;42.04
13241;BME280;6687;47.790;7.322;2023-04-29T12:01:03;98890.19;;;27.65;42.39
13241;BME280;6687;47.790;7.322;2023-04-29T12:03:31;98882.84;;;27.43;46.27
13241;BME280;6687;47.790;7.322;2023-04-29T12:05:58;98890.09;;;27.53;43.92
13241;BME280;6687;47.790;7.322;2023-04-29T12:08:29;98881.28;;;27.91;44.00
13241;BME280;6687;47.790;7.322;2023-04-29T12:10:58;98887.34;;;27.93;43.53
13241;BME280;6687;47.790;7.322;2023-04-29T12:13:26;98890.50;;;27.73;43.14
13241;BME280;6687;47.790;7.322;2023-04-29T12:15:55;98885.94;;;28.01;42.45
13241;BME280;6687;47.790;7.322;2023-04-29T12:18:22;98881.47;;;27.88;45.14
13241;BME280;6687;47.790;7.322;2023-04-29T12:20:49;98877.13;;;28.24;42.27
13241;BME280;6687;47.790;7.322;2023-04-29T12:23:18;98882.53;;;27.99;45.15
13241;BME280;6687;47.790;7.322;2023-04-29T12:25:50;98885.94;;;28.01;43.51
13241;BME280;6687;47.790;7.322;2023-04-29T12:28:17;98883.81;;;27.93;43.63
13241;BME280;6687;47.790;7.322;2023-04-29T12:30:45;98884.25;;;27.74;38.77
13241;BME280;6687;47.790;7.322;2023-04-29T12:33:15;98875.75;;;27.03;38.31
13241;BME280;6687;47.790;7.322;2023-04-29T12:35:44;98875.41;;;27.08;39.35
13241;BME280;6687;47.790;7.322;2023-04-29T12:38:10;98880.97;;;27.17;40.69
13241;BME280;6687;47.790;7.322;2023-04-29T12:40:41;98881.03;;;27.69;38.93
13241;BME280;6687;47.790;7.322;2023-04-29T12:43:09;98880.31;;;27.92;42.96
13241;BME280;6687;47.790;7.322;2023-04-29T12:45:37;98878.03;;;27.99;37.52
13241;BME280;6687;47.790;7.322;2023-04-29T12:48:04;98883.31;;;28.25;40.58
13241;BME280;6687;47.790;7.322;2023-04-29T12:50:32;98880.41;;;27.91;36.61
13241;BME280;6687;47.790;7.322;2023-04-29T12:53:00;98885.88;;;28.26;42.50
13241;BME280;6687;47.790;7.322;2023-04-29T12:55:27;98877.09;;;27.49;44.00
13241;BME280;6687;47.790;7.322;2023-04-29T12:57:53;98883.84;;;28.17;43.06
13241;BME280;6687;47.790;7.322;2023-04-29T13:00:22;98884.25;;;27.74;40.00
13241;BME280;6687;47.790;7.322;2023-04-29T13:02:49;98880.63;;;27.88;41.69
13241;BME280;6687;47.790;7.322;2023-04-29T13:05:16;98881.25;;;28.04;39.22
13241;BME280;6687;47.790;7.322;2023-04-29T13:07:43;98889.69;;;27.60;40.12
13241;BME280;6687;47.790;7.322;2023-04-29T13:10:10;98881.78;;;27.71;40.82
13241;BME280;6687;47.790;7.322;2023-04-29T13:12:38;98885.94;;;26.01;38.52
13241;BME280;6687;47.790;7.322;2023-04-29T13:15:05;98889.50;;;26.55;40.03
13241;BME280;6687;47.790;7.322;2023-04-29T13:17:35;98877.19;;;25.70;45.51
13241;BME280;6687;47.790;7.322;2023-04-29T13:20:02;98880.41;;;26.59;42.92
13241;BME280;6687;47.790;7.322;2023-04-29T13:22:29;98888.00;;;24.92;41.06
13241;BME280;6687;47.790;7.322;2023-04-29T13:24:56;98876.97;;;25.44;39.67
13241;BME280;6687;47.790;7.322;2023-04-29T13:27:22;98882.38;;;26.70;42.45
13241;BME280;6687;47.790;7.322;2023-04-29T13:29:49;98869.19;;;26.27;38.77
13241;BME280;6687;47.790;7.322;2023-04-29T13:32:16;98871.88;;;26.13;38.21
13241;BME280;6687;47.790;7.322;2023-04-29T13:34:46;98879.81;;;26.27;38.68
13241;BME280;6687;47.790;7.322;2023-04-29T13:37:13;98885.22;;;25.54;38.57
13241;BME280;6687;47.790;7.322;2023-04-29T13:39:41;98875.94;;;26.46;41.88
13241;BME280;6687;47.790;7.322;2023-04-29T13:42:08;98890.25;;;26.57;40.22
13241;BME280;6687;47.790;7.322;2023-04-29T13:44:35;98882.94;;;26.19;42.63
13241;BME280;6687;47.790;7.322;2023-04-29T13:47:02;98879.16;;;25.66;40.02
13241;BME280;6687;47.790;7.322;2023-04-29T13:49:30;98885.72;;;26.59;38.08
13241;BME280;6687;47.790;7.322;2023-04-29T13:51:58;98879.72;;;26.70;38.30
13241;BME280;6687;47.790;7.322;2023-04-29T13:54:25;98886.78;;;26.84;42.10
13241;BME280;6687;47.790;7.322;2023-04-29T13:56:52;98885.13;;;26.27;38.49
13241;BME280;6687;47.790;7.322;2023-04-29T13:59:19;98889.63;;;25.25;38.91
13241;BME280;6687;47.790;7.322;2023-04-29T14:01:45;98887.78;;;25.84;39.29
13241;BME280;6687;47.790;7.322;2023-04-29T14:04:13;98893.38;;;25.20;39.87
13241;BME280;6687;47.790;7.322;2023-04-29T14:06:41;98887.53;;;26.45;39.83
13241;BME280;6687;47.790;7.322;2023-04-29T14:09:09;98881.94;;;25.93;38.82
13241;BME280;6687;47.790;7.322;2023-04-29T14:11:36;98892.44;;;25.52;38.35
13241;BME280;6687;47.790;7.322;2023-04-29T14:14:03;98899.38;;;25.69;41.89
13241;BME280;6687;47.790;7.322;2023-04-29T14:16:30;98900.28;;;25.39;39.18
13241;BME280;6687;47.790;7.322;2023-04-29T14:18:57;98893.31;;;23.96;39.86
13241;BME280;6687;47.790;7.322;2023-04-29T14:21:23;98898.13;;;25.15;39.42
13241;BME280;6687;47.790;7.322;2023-04-29T14:23:51;98906.75;;;23.76;39.96
13241;BME280;6687;47.790;7.322;2023-04-29T14:26:19;98892.13;;;25.42;40.29
13241;BME280;6687;47.790;7.322;2023-04-29T14:28:46;98887.00;;;24.15;39.77
13241;BME280;6687;47.790;7.322;2023-04-29T14:31:13;98893.66;;;25.46;42.62
13241;BME280;6687;47.790;7.322;2023-04-29T14:33:41;98900.38;;;25.07;41.73
13241;BME280;6687;47.790;7.322;2023-04-29T14:36:08;98896.00;;;24.28;38.87
13241;BME280;6687;47.790;7.322;2023-04-29T14:38:35;98903.59;;;25.12;40.44
13241;BME280;6687;47.790;7.322;2023-04-29T14:41:02;98893.84;;;25.72;42.31
13241;BME280;6687;47.790;7.322;2023-04-29T14:43:30;98914.75;;;25.03;38.03
13241;BME280;6687;47.790;7.322;2023-04-29T14:45:56;98905.19;;;25.31;42.21
13241;BME280;6687;47.790;7.322;2023-04-29T14:48:23;98903.53;;;26.16;39.34
13241;BME280;6687;47.790;7.322;2023-04-29T14:50:50;98907.25;;;25.99;38.56
13241;BME280;6687;47.790;7.322;2023-04-29T14:53:17;98911.63;;;24.80;38.89
13241;BME280;6687;47.790;7.322;2023-04-29T14:55:43;98908.31;;;26.38;41.78
13241;BME280;6687;47.790;7.322;2023-04-29T14:58:10;98913.31;;;26.57;40.08
13241;BME280;6687;47.790;7.322;2023-04-29T15:00:38;98916.06;;;26.28;38.41
13241;BME280;6687;47.790;7.322;2023-04-29T15:03:05;98914.47;;;25.38;42.87
13241;BME280;6687;47.790;7.322;2023-04-29T15:05:32;98923.03;;;25.57;39.20
13241;BME280;6687;47.790;7.322;2023-04-29T15:07:58;98916.22;;;25.82;39.06
13241;BME280;6687;47.790;7.322;2023-04-29T15:10:26;98926.94;;;25.22;40.30
13241;BME280;6687;47.790;7.322;2023-04-29T15:12:53;98937.31;;;24.94;39.30
13241;BME280;6687;47.790;7.322;2023-04-29T15:15:20;98931.66;;;23.72;39.01
13241;BME280;6687;47.790;7.322;2023-04-29T15:17:48;98934.72;;;24.63;37.95
13241;BME280;6687;47.790;7.322;2023-04-29T15:20:15;98943.69;;;24.60;37.99
13241;BME280;6687;47.790;7.322;2023-04-29T15:22:42;98941.19;;;24.57;37.79
13241;BME280;6687;47.790;7.322;2023-04-29T15:25:09;98942.19;;;24.38;39.15
13241;BME280;6687;47.790;7.322;2023-04-29T15:27:36;98944.09;;;24.84;37.57
13241;BME280;6687;47.790;7.322;2023-04-29T15:30:04;98943.88;;;23.57;39.30
13241;BME280;6687;47.790;7.322;2023-04-29T15:32:31;98944.03;;;24.86;42.30
13241;BME280;6687;47.790;7.322;2023-04-29T15:35:00;98942.50;;;24.00;39.33
13241;BME280;6687;47.790;7.322;2023-04-29T15:37:28;98947.84;;;24.32;43.30
13241;BME280;6687;47.790;7.322;2023-04-29T15:39:55;98951.56;;;23.09;40.38
13241;BME280;6687;47.790;7.322;2023-04-29T15:42:23;98955.31;;;23.22;40.19
13241;BME280;6687;47.790;7.322;2023-04-29T15:44:50;98958.59;;;23.45;39.53
13241;BME280;6687;47.790;7.322;2023-04-29T15:47:17;98956.94;;;23.77;41.18
13241;BME280;6687;47.790;7.322;2023-04-29T15:49:44;98956.06;;;23.94;42.63
13241;BME280;6687;47.790;7.322;2023-04-29T15:52:12;98950.72;;;22.72;40.67
13241;BME280;6687;47.790;7.322;2023-04-29T15:54:38;98964.53;;;22.77;40.85
13241;BME280;6687;47.790;7.322;2023-04-29T15:57:05;98964.72;;;22.16;41.19
13241;BME280;6687;47.790;7.322;2023-04-29T15:59:32;98962.56;;;23.36;41.88
13241;BME280;6687;47.790;7.322;2023-04-29T16:01:59;98962.78;;;23.14;45.15
13241;BME280;6687;47.790;7.322;2023-04-29T16:04:27;98964.38;;;22.04;42.26
13241;BME280;6687;47.790;7.322;2023-04-29T16:06:55;98963.69;;;23.13;42.19
13241;BME280;6687;47.790;7.322;2023-04-29T16:09:24;98965.38;;;22.21;43.62
13241;BME280;6687;47.790;7.322;2023-04-29T16:11:50;98971.41;;;22.43;40.92
13241;BME280;6687;47.790;7.322;2023-04-29T16:14:18;98970.38;;;23.03;43.14
13241;BME280;6687;47.790;7.322;2023-04-29T16:16:44;98975.69;;;23.01;44.04
13241;BME280;6687;47.790;7.322;2023-04-29T16:19:11;98973.69;;;22.51;41.10
13241;BME280;6687;47.790;7.322;2023-04-29T16:21:38;98978.72;;;22.38;41.38
13241;BME280;6687;47.790;7.322;2023-04-29T16:24:05;98976.38;;;22.88;41.61
13241;BME280;6687;47.790;7.322;2023-04-29T16:26:34;98977.84;;;22.38;44.71
13241;BME280;6687;47.790;7.322;2023-04-29T16:29:01;98986.81;;;21.74;41.52
13241;BME280;6687;47.790;7.322;2023-04-29T16:31:28;98986.44;;;22.22;42.09
13241;BME280;6687;47.790;7.322;2023-04-29T16:33:54;98991.00;;;21.98;45.33
13241;BME280;6687;47.790;7.322;2023-04-29T16:36:22;98993.13;;;22.11;42.05
13241;BME280;6687;47.790;7.322;2023-04-29T16:38:49;98996.84;;;21.45;41.85
13241;BME280;6687;47.790;7.322;2023-04-29T16:41:18;98994.72;;;21.94;42.44
13241;BME280;6687;47.790;7.322;2023-04-29T16:43:46;98994.25;;;22.44;44.09
13241;BME280;6687;47.790;7.322;2023-04-29T16:46:13;99001.97;;;21.26;43.14
13241;BME280;6687;47.790;7.322;2023-04-29T16:48:40;98997.06;;;21.61;44.45
13241;BME280;6687;47.790;7.322;2023-04-29T16:51:06;99006.41;;;21.25;43.07
13241;BME280;6687;47.790;7.322;2023-04-29T16:53:34;98997.72;;;21.23;43.10
13241;BME280;6687;47.790;7.322;2023-04-29T16:56:00;99003.34;;;20.70;43.39
13241;BME280;6687;47.790;7.322;2023-04-29T16:58:27;99001.41;;;20.75;42.83
13241;BME280;6687;47.790;7.322;2023-04-29T17:00:56;98999.44;;;20.57;47.66
13241;BME280;6687;47.790;7.322;2023-04-29T17:03:22;99003.03;;;21.22;43.35
13241;BME280;6687;47.790;7.322;2023-04-29T17:05:49;99008.75;;;21.11;47.25
13241;BME280;6687;47.790;7.322;2023-04-29T17:08:16;99013.78;;;20.73;43.40
13241;BME280;6687;47.790;7.322;2023-04-29T17:10:42;99005.22;;;20.43;44.02
13241;BME280;6687;47.790;7.322;2023-04-29T17:13:09;99016.00;;;19.61;44.80
13241;BME280;6687;47.790;7.322;2023-04-29T17:15:36;99016.81;;;19.90;45.28
13241;BME280;6687;47.790;7.322;2023-04-29T17:18:04;99019.56;;;20.11;47.40
13241;BME280;6687;47.790;7.322;2023-04-29T17:20:31;99009.72;;;20.86;45.38
13241;BME280;6687;47.790;7.322;2023-04-29T17:22:58;99010.88;;;20.56;46.71
13241;BME280;6687;47.790;7.322;2023-04-29T17:25:24;99021.59;;;19.77;44.77
13241;BME280;6687;47.790;7.322;2023-04-29T17:27:51;99019.44;;;19.90;45.96
13241;BME280;6687;47.790;7.322;2023-04-29T17:30:18;99011.19;;;19.99;45.40
13241;BME280;6687;47.790;7.322;2023-04-29T17:32:45;99013.00;;;20.22;45.46
13241;BME280;6687;47.790;7.322;2023-04-29T17:35:15;99017.22;;;20.03;46.61
13241;BME280;6687;47.790;7.322;2023-04-29T17:37:41;99021.59;;;18.97;45.84
13241;BME280;6687;47.790;7.322;2023-04-29T17:40:09;99023.25;;;19.00;45.97
13241;BME280;6687;47.790;7.322;2023-04-29T17:42:36;99020.97;;;19.17;50.76
13241;BME280;6687;47.790;7.322;2023-04-29T17:45:03;99025.53;;;19.12;46.49
13241;BME280;6687;47.790;7.322;2023-04-29T17:47:30;99028.44;;;18.43;47.08
13241;BME280;6687;47.790;7.322;2023-04-29T17:49:57;99033.19;;;17.99;48.65
13241;BME280;6687;47.790;7.322;2023-04-29T17:52:25;99032.38;;;18.58;48.13
13241;BME280;6687;47.790;7.322;2023-04-29T17:54:52;99037.31;;;18.39;47.81
13241;BME280;6687;47.790;7.322;2023-04-29T17:57:19;99038.31;;;17.68;48.58
13241;BME280;6687;47.790;7.322;2023-04-29T17:59:46;99038.81;;;17.84;48.40
13241;BME280;6687;47.790;7.322;2023-04-29T18:02:12;99043.94;;;17.17;50.56
13241;BME280;6687;47.790;7.322;2023-04-29T18:04:39;99044.41;;;17.68;50.42
13241;BME280;6687;47.790;7.322;2023-04-29T18:07:06;99044.78;;;17.91;50.59
13241;BME280;6687;47.790;7.322;2023-04-29T18:09:34;99044.97;;;18.16;50.02
13241;BME280;6687;47.790;7.322;2023-04-29T18:12:00;99045.84;;;17.82;52.09
13241;BME280;6687;47.790;7.322;2023-04-29T18:14:27;99045.09;;;18.11;50.63
13241;BME280;6687;47.790;7.322;2023-04-29T18:16:55;99051.97;;;17.46;51.32
13241;BME280;6687;47.790;7.322;2023-04-29T18:19:22;99054.44;;;17.53;51.22
13241;BME280;6687;47.790;7.322;2023-04-29T18:21:49;99054.69;;;17.78;53.46
13241;BME280;6687;47.790;7.322;2023-04-29T18:24:16;99050.00;;;17.55;52.01
13241;BME280;6687;47.790;7.322;2023-04-29T18:26:44;99052.81;;;17.83;51.32
13241;BME280;6687;47.790;7.322;2023-04-29T18:29:10;99055.84;;;17.32;51.96
13241;BME280;6687;47.790;7.322;2023-04-29T18:31:37;99047.25;;;17.97;52.43
13241;BME280;6687;47.790;7.322;2023-04-29T18:34:04;99049.09;;;17.21;54.95
13241;BME280;6687;47.790;7.322;2023-04-29T18:36:30;99060.16;;;16.53;53.63